createdAt,value
2018-09-20T00:00:45.590Z,11.17
2018-09-20T00:03:15.091Z,11.43
2018-09-20T00:05:44.249Z,11.70
2018-09-20T00:08:13.492Z,11.13
2018-09-20T00:10:42.688Z,12.60
2018-09-20T00:13:11.849Z,11.60
2018-09-20T00:15:41.027Z,10.93
2018-09-20T00:18:10.245Z,10.90
2018-09-20T00:20:39.997Z,11.33
2018-09-20T00:23:09.388Z,11.47
2018-09-20T00:25:38.617Z,10.60
2018-09-20T00:28:07.878Z,11.50
2018-09-20T00:30:37.121Z,12.00
2018-09-20T00:33:06.785Z,11.57
2018-09-20T00:35:35.952Z,11.87
2018-09-20T00:38:05.294Z,10.10
2018-09-20T00:40:34.452Z,11.63
2018-09-20T00:43:03.653Z,11.43
2018-09-20T00:45:33.301Z,11.73
2018-09-20T00:48:02.534Z,12.47
2018-09-20T00:50:31.718Z,13.27
2018-09-20T00:53:01.089Z,12.53
2018-09-20T00:55:30.238Z,12.47
2018-09-20T00:57:59.441Z,13.70
2018-09-20T01:00:28.655Z,13.40
2018-09-20T01:02:57.890Z,12.90
2018-09-20T01:05:27.132Z,12.30
2018-09-20T01:07:56.343Z,12.67
2018-09-20T01:10:25.515Z,13.30
2018-09-20T01:12:54.673Z,12.10
2018-09-20T01:15:24.216Z,12.30
2018-09-20T01:17:53.560Z,12.47
2018-09-20T01:20:22.789Z,11.87
2018-09-20T01:22:52.054Z,13.70
2018-09-20T01:25:21.195Z,11.73
2018-09-20T01:27:50.377Z,13.00
2018-09-20T01:30:19.629Z,14.47
2018-09-20T01:32:48.893Z,13.13
2018-09-20T01:35:18.127Z,12.60
2018-09-20T01:37:47.326Z,13.83
2018-09-20T01:40:16.608Z,13.83
2018-09-20T01:42:45.788Z,12.63
2018-09-20T01:45:15.029Z,14.10
2018-09-20T01:47:44.185Z,14.00
2018-09-20T01:50:13.535Z,14.27
2018-09-20T01:52:42.774Z,13.37
2018-09-20T01:55:11.976Z,13.70
2018-09-20T01:57:41.269Z,13.40
2018-09-20T02:00:10.489Z,13.47
2018-09-20T02:02:39.702Z,13.33
2018-09-20T02:05:09.079Z,11.77
2018-09-20T02:07:38.350Z,12.57
2018-09-20T02:10:07.489Z,12.20
2018-09-20T02:12:36.668Z,11.40
2018-09-20T02:15:06.129Z,12.20
2018-09-20T02:17:35.736Z,11.73
2018-09-20T02:20:04.936Z,11.03
2018-09-20T02:22:34.109Z,11.20
2018-09-20T02:25:03.403Z,10.67
2018-09-20T02:27:32.707Z,11.60
2018-09-20T02:30:01.927Z,11.90
2018-09-20T02:32:31.120Z,12.23
2018-09-20T02:35:00.376Z,13.13
2018-09-20T02:37:30.646Z,10.80
2018-09-20T02:40:00.202Z,12.67
2018-09-20T02:42:29.655Z,12.50
2018-09-20T02:44:58.888Z,12.67
2018-09-20T02:47:28.321Z,12.50
2018-09-20T02:49:57.677Z,12.00
2018-09-20T02:52:27.008Z,11.00
2018-09-20T02:54:56.162Z,11.67
2018-09-20T02:57:26.781Z,12.53
2018-09-20T02:59:56.746Z,11.70
2018-09-20T03:02:25.953Z,12.80
2018-09-20T03:04:55.140Z,13.27
2018-09-20T03:07:24.381Z,12.23
2018-09-20T03:09:53.572Z,12.60
2018-09-20T03:12:22.797Z,12.30
2018-09-20T03:14:52.094Z,12.63
2018-09-20T03:17:21.402Z,11.87
2018-09-20T03:19:50.625Z,10.90
2018-09-20T03:22:19.795Z,12.47
2018-09-20T03:24:49.041Z,13.10
2018-09-20T03:27:18.209Z,11.53
2018-09-20T03:29:47.550Z,12.83
2018-09-20T03:32:16.802Z,12.20
2018-09-20T03:34:45.985Z,11.60
2018-09-20T03:37:15.221Z,13.40
2018-09-20T03:39:44.355Z,12.30
2018-09-20T03:42:13.544Z,12.20
2018-09-20T03:44:42.724Z,12.20
2018-09-20T03:47:11.997Z,12.57
2018-09-20T03:49:41.204Z,13.80
2018-09-20T03:52:10.446Z,13.63
2018-09-20T03:54:39.665Z,12.27
2018-09-20T03:57:09.268Z,12.00
2018-09-20T03:59:38.504Z,13.10
2018-09-20T04:02:07.685Z,12.13
2018-09-20T04:04:36.900Z,11.33
2018-09-20T04:07:06.345Z,13.07
2018-09-20T04:09:35.657Z,12.50
2018-09-20T04:12:04.874Z,13.63
2018-09-20T04:14:34.158Z,12.43
2018-09-20T04:17:03.349Z,13.57
2018-09-20T04:19:32.540Z,12.43
2018-09-20T04:22:01.790Z,12.90
2018-09-20T04:24:30.944Z,13.50
2018-09-20T04:27:00.092Z,13.57
2018-09-20T04:29:29.829Z,12.60
2018-09-20T04:31:59.032Z,12.53
2018-09-20T04:34:28.172Z,12.97
2018-09-20T04:36:57.557Z,12.33
2018-09-20T04:39:26.776Z,12.00
2018-09-20T04:41:55.967Z,13.63
2018-09-20T04:44:25.412Z,12.40
2018-09-20T04:46:54.616Z,11.40
2018-09-20T04:49:23.759Z,11.37
2018-09-20T04:51:53.225Z,13.33
2018-09-20T04:54:22.410Z,12.67
2018-09-20T04:56:51.564Z,12.70
2018-09-20T04:59:21.004Z,12.40
2018-09-20T05:01:50.185Z,12.10
2018-09-20T05:04:19.365Z,12.83
2018-09-20T05:06:48.830Z,13.10
2018-09-20T05:09:18.036Z,11.67
2018-09-20T05:11:47.179Z,13.30
2018-09-20T05:14:16.621Z,13.03
2018-09-20T05:16:45.869Z,13.67
2018-09-20T05:19:14.992Z,13.23
2018-09-20T05:21:44.470Z,13.70
2018-09-20T05:24:13.647Z,11.80
2018-09-20T05:26:42.939Z,12.87
2018-09-20T05:29:12.554Z,11.73
2018-09-20T05:31:41.693Z,14.37
2018-09-20T05:34:10.832Z,12.90
2018-09-20T05:36:40.338Z,13.43
2018-09-20T05:39:10.558Z,13.37
2018-09-20T05:41:39.825Z,14.00
2018-09-20T05:44:10.136Z,13.80
2018-09-20T05:46:40.054Z,13.03
2018-09-20T05:49:09.302Z,14.70
2018-09-20T05:51:38.788Z,13.63
2018-09-20T05:54:08.793Z,14.47
2018-09-20T05:56:37.987Z,14.17
2018-09-20T05:59:07.434Z,14.77
2018-09-20T06:01:36.560Z,14.10
2018-09-20T06:04:05.721Z,15.00
2018-09-20T06:06:34.886Z,16.30
2018-09-20T06:09:05.002Z,14.37
2018-09-20T06:11:34.162Z,12.67
2018-09-20T06:14:03.391Z,12.50
2018-09-20T06:16:32.573Z,13.60
2018-09-20T06:19:01.868Z,13.23
2018-09-20T06:21:31.153Z,12.57
2018-09-20T06:24:00.312Z,12.03
2018-09-20T06:26:29.542Z,14.67
2018-09-20T06:28:58.747Z,13.00
2018-09-20T06:31:27.951Z,12.90
2018-09-20T06:33:57.093Z,11.43
2018-09-20T06:36:26.420Z,11.90
2018-09-20T06:38:55.593Z,12.33
2018-09-20T06:41:24.781Z,12.83
2018-09-20T06:43:54.092Z,13.57
2018-09-20T06:46:23.633Z,14.00
2018-09-20T06:48:52.828Z,17.43
2018-09-20T06:51:22.019Z,17.80
2018-09-20T06:53:51.571Z,17.53
2018-09-20T06:56:20.694Z,18.43
2018-09-20T06:58:49.928Z,19.30
2018-09-20T07:01:19.070Z,19.57
2018-09-20T07:03:48.369Z,19.27
2018-09-20T07:06:17.563Z,22.20
2018-09-20T07:08:46.918Z,19.63
2018-09-20T07:11:16.183Z,17.70
2018-09-20T07:13:45.741Z,18.90
2018-09-20T07:16:14.885Z,18.87
2018-09-20T07:18:44.117Z,21.37
2018-09-20T07:21:13.268Z,22.33
2018-09-20T07:23:43.866Z,22.77
2018-09-20T07:26:13.041Z,22.10
2018-09-20T07:28:42.826Z,23.53
2018-09-20T07:31:12.010Z,23.40
2018-09-20T07:33:41.201Z,22.93
2018-09-20T07:36:10.980Z,23.50
2018-09-20T07:38:40.205Z,23.10
2018-09-20T07:41:09.481Z,22.80
2018-09-20T07:43:39.656Z,23.33
2018-09-20T07:46:08.842Z,24.33
2018-09-20T07:48:38.043Z,23.57
2018-09-20T07:51:07.424Z,22.27
2018-09-20T07:53:36.638Z,21.43
2018-09-20T07:56:05.834Z,20.23
2018-09-20T07:58:35.082Z,21.20
2018-09-20T08:01:04.556Z,19.63
2018-09-20T08:03:33.854Z,18.90
2018-09-20T08:06:02.993Z,18.63
2018-09-20T08:08:32.117Z,17.27
2018-09-20T08:11:01.320Z,18.43
2018-09-20T08:13:30.819Z,17.60
2018-09-20T08:16:00.014Z,17.43
2018-09-20T08:18:29.157Z,16.90
2018-09-20T08:20:58.673Z,15.30
2018-09-20T08:23:27.834Z,16.30
2018-09-20T08:25:57.028Z,14.37
2018-09-20T08:28:26.233Z,13.40
2018-09-20T08:30:55.353Z,12.07
2018-09-20T08:33:24.577Z,12.80
2018-09-20T08:35:53.820Z,11.10
2018-09-20T08:38:23.021Z,11.37
2018-09-20T08:40:52.244Z,11.10
2018-09-20T08:43:21.420Z,10.97
2018-09-20T08:45:50.639Z,11.00
2018-09-20T08:48:19.781Z,10.73
2018-09-20T08:50:49.133Z,10.47
2018-09-20T08:53:18.252Z,10.33
2018-09-20T08:55:47.404Z,11.13
2018-09-20T08:58:16.609Z,10.07
2018-09-20T09:00:45.773Z,8.67
2018-09-20T09:03:14.970Z,9.40
2018-09-20T09:05:44.196Z,10.47
2018-09-20T09:08:13.396Z,10.00
2018-09-20T09:10:42.648Z,9.43
2018-09-20T09:13:12.983Z,8.67
2018-09-20T09:15:42.169Z,8.80
2018-09-20T09:18:11.318Z,8.20
2018-09-20T09:20:40.558Z,9.40
2018-09-20T09:23:09.777Z,10.53
2018-09-20T09:25:39.025Z,8.73
2018-09-20T09:28:08.218Z,7.33
2018-09-20T09:30:37.500Z,8.27
2018-09-20T09:33:06.438Z,7.37
2018-09-20T09:35:35.717Z,7.60
2018-09-20T09:38:04.920Z,6.90
2018-09-20T09:40:34.085Z,7.40
2018-09-20T09:43:03.290Z,6.30
2018-09-20T09:45:32.412Z,5.83
2018-09-20T09:48:01.607Z,7.00
2018-09-20T09:50:30.785Z,7.43
2018-09-20T09:53:00.038Z,7.27
2018-09-20T09:55:29.294Z,7.13
2018-09-20T09:57:58.692Z,6.70
2018-09-20T10:00:34.503Z,7.47
2018-09-20T10:03:03.706Z,7.00
2018-09-20T10:05:32.841Z,7.77
2018-09-20T10:08:02.118Z,7.90
2018-09-20T10:10:31.366Z,6.87
2018-09-20T10:13:00.557Z,6.30
2018-09-20T10:15:29.684Z,6.03
2018-09-20T10:17:58.906Z,5.43
2018-09-20T10:20:28.191Z,6.67
2018-09-20T10:22:57.799Z,4.80
2018-09-20T10:25:27.064Z,5.70
2018-09-20T10:27:56.296Z,5.50
2018-09-20T10:30:25.485Z,5.93
2018-09-20T10:32:54.681Z,4.43
2018-09-20T10:35:23.863Z,5.37
2018-09-20T10:37:53.104Z,6.20
2018-09-20T10:40:22.321Z,5.17
2018-09-20T10:42:51.467Z,4.87
2018-09-20T10:45:20.561Z,4.97
2018-09-20T10:47:49.726Z,4.73
2018-09-20T10:50:18.926Z,6.00
2018-09-20T10:52:48.077Z,4.30
2018-09-20T10:55:17.302Z,4.27
2018-09-20T10:57:46.440Z,4.33
2018-09-20T11:00:15.644Z,4.87
2018-09-20T11:02:44.882Z,4.03
2018-09-20T11:05:14.051Z,4.20
2018-09-20T11:07:43.240Z,3.73
2018-09-20T11:10:12.431Z,4.10
2018-09-20T11:12:41.654Z,4.63
2018-09-20T11:15:10.953Z,4.10
2018-09-20T11:17:40.124Z,3.67
2018-09-20T11:20:09.324Z,3.50
2018-09-20T11:22:38.579Z,3.93
2018-09-20T11:25:08.074Z,3.50
2018-09-20T11:27:37.242Z,3.87
2018-09-20T11:30:06.625Z,4.53
2018-09-20T11:32:35.845Z,4.40
2018-09-20T11:35:05.073Z,3.60
2018-09-20T11:37:34.311Z,4.03
2018-09-20T11:40:03.534Z,4.17
2018-09-20T11:42:32.654Z,4.47
2018-09-20T11:45:01.813Z,4.10
2018-09-20T11:47:31.022Z,3.80
2018-09-20T11:50:00.258Z,4.20
2018-09-20T11:52:29.474Z,3.87
2018-09-20T11:54:58.690Z,4.20
2018-09-20T11:57:27.879Z,4.40
2018-09-20T11:59:57.306Z,3.90
2018-09-20T12:02:26.604Z,5.27
2018-09-20T12:04:55.749Z,4.40
2018-09-20T12:07:25.010Z,4.60
2018-09-20T12:09:54.749Z,4.67
2018-09-20T12:12:23.962Z,4.50
2018-09-20T12:14:53.153Z,5.13
2018-09-20T12:17:22.457Z,4.43
2018-09-20T12:19:51.635Z,4.20
2018-09-20T12:22:20.934Z,4.10
2018-09-20T12:24:50.119Z,4.53
2018-09-20T12:27:19.323Z,4.63
2018-09-20T12:29:49.115Z,4.90
2018-09-20T12:32:18.439Z,4.90
2018-09-20T12:34:47.535Z,4.30
2018-09-20T12:37:16.651Z,4.23
2018-09-20T12:39:45.841Z,4.97
2018-09-20T12:42:14.981Z,4.30
2018-09-20T12:44:44.184Z,4.77
2018-09-20T12:47:13.448Z,4.60
2018-09-20T12:49:42.649Z,4.67
2018-09-20T12:52:12.095Z,4.80
2018-09-20T12:54:41.396Z,4.53
2018-09-20T12:57:10.491Z,4.90
2018-09-20T12:59:39.653Z,5.00
2018-09-20T13:02:08.956Z,4.87
2018-09-20T13:04:38.124Z,6.87
2018-09-20T13:07:07.489Z,4.43
2018-09-20T13:09:36.698Z,5.00
2018-09-20T13:12:05.948Z,5.23
2018-09-20T13:14:35.084Z,4.60
2018-09-20T13:17:05.357Z,5.10
2018-09-20T13:19:34.683Z,4.53
2018-09-20T13:22:04.155Z,4.33
2018-09-20T13:24:33.383Z,4.10
2018-09-20T13:27:02.615Z,4.80
2018-09-20T13:29:31.867Z,4.40
2018-09-20T13:32:01.321Z,4.33
2018-09-20T13:34:30.594Z,4.50
2018-09-20T13:36:59.745Z,4.83
2018-09-20T13:39:28.997Z,4.10
2018-09-20T13:41:58.201Z,4.43
2018-09-20T13:44:27.456Z,5.30
2018-09-20T13:46:56.593Z,4.33
2018-09-20T13:49:26.675Z,4.10
2018-09-20T13:51:55.848Z,5.10
2018-09-20T13:54:25.670Z,5.20
2018-09-20T13:56:55.437Z,5.43
2018-09-20T13:59:24.713Z,5.40
2018-09-20T14:01:53.981Z,5.90
2018-09-20T14:04:23.236Z,5.00
2018-09-20T14:06:52.408Z,4.70
2018-09-20T14:09:21.693Z,4.80
2018-09-20T14:11:50.866Z,4.90
2018-09-20T14:14:19.972Z,4.60
2018-09-20T14:16:49.498Z,5.60
2018-09-20T14:19:18.702Z,4.60
2018-09-20T14:21:47.928Z,5.10
2018-09-20T14:24:17.100Z,4.70
2018-09-20T14:26:46.349Z,5.33
2018-09-20T14:29:15.482Z,4.67
2018-09-20T14:31:44.657Z,4.67
2018-09-20T14:34:13.924Z,5.23
2018-09-20T14:36:44.327Z,4.60
2018-09-20T14:39:13.458Z,5.60
2018-09-20T14:41:42.669Z,5.17
2018-09-20T14:44:11.849Z,4.67
2018-09-20T14:46:41.038Z,4.87
2018-09-20T14:49:10.150Z,5.60
2018-09-20T14:51:39.289Z,4.70
2018-09-20T14:54:08.457Z,5.13
2018-09-20T14:56:37.582Z,5.00
2018-09-20T14:59:06.912Z,5.00
2018-09-20T15:01:36.094Z,5.00
2018-09-20T15:04:05.904Z,5.00
2018-09-20T15:06:35.054Z,4.87
2018-09-20T15:09:06.481Z,4.90
2018-09-20T15:11:35.611Z,4.93
2018-09-20T15:14:04.773Z,5.30
2018-09-20T15:16:33.941Z,5.27
2018-09-20T15:19:03.172Z,6.03
2018-09-20T15:21:32.303Z,4.07
2018-09-20T15:24:01.466Z,6.13
2018-09-20T15:26:30.593Z,5.23
2018-09-20T15:28:59.874Z,5.10
2018-09-20T15:31:29.070Z,4.70
2018-09-20T15:33:58.225Z,5.00
2018-09-20T15:36:27.820Z,4.87
2018-09-20T15:38:56.982Z,4.60
2018-09-20T15:41:52.472Z,4.80
2018-09-20T15:44:21.680Z,4.80
2018-09-20T15:46:50.793Z,4.77
2018-09-20T15:49:20.036Z,5.63
2018-09-20T15:51:49.187Z,5.07
2018-09-20T15:54:18.357Z,5.20
2018-09-20T15:56:47.493Z,5.50
2018-09-20T15:59:16.628Z,5.10
2018-09-20T16:01:45.740Z,4.90
2018-09-20T16:04:14.916Z,4.40
2018-09-20T16:06:44.100Z,5.00
2018-09-20T16:09:13.231Z,5.00
2018-09-20T16:11:42.805Z,5.10
2018-09-20T16:14:12.707Z,5.00
2018-09-20T16:16:41.866Z,5.97
2018-09-20T16:19:10.986Z,5.33
2018-09-20T16:21:40.161Z,4.80
2018-09-20T16:24:09.274Z,6.70
2018-09-20T16:26:38.408Z,6.07
2018-09-20T16:29:17.311Z,5.80
2018-09-20T16:32:09.228Z,6.27
2018-09-20T16:34:49.589Z,5.40
2018-09-20T16:37:30.510Z,6.40
2018-09-20T16:40:02.206Z,5.20
2018-09-20T16:42:33.151Z,6.27
2018-09-20T16:45:02.273Z,6.30
2018-09-20T16:47:31.440Z,6.60
2018-09-20T16:50:00.566Z,5.53
2018-09-20T16:52:29.699Z,7.90
2018-09-20T16:54:58.916Z,6.67
2018-09-20T16:57:28.189Z,6.63
2018-09-20T16:59:57.378Z,7.30
2018-09-20T17:02:26.538Z,7.07
2018-09-20T17:04:56.010Z,6.40
2018-09-20T17:07:25.133Z,7.57
2018-09-20T17:09:54.349Z,7.00
2018-09-20T17:12:23.481Z,7.07
2018-09-20T17:14:52.628Z,6.30
2018-09-20T17:17:22.089Z,6.83
2018-09-20T17:19:51.254Z,6.27
2018-09-20T17:22:20.328Z,7.10
2018-09-20T17:24:50.406Z,7.17
2018-09-20T17:27:19.616Z,7.77
2018-09-20T17:29:48.816Z,8.07
2018-09-20T17:32:18.031Z,9.87
2018-09-20T17:34:47.660Z,10.10
2018-09-20T17:37:17.974Z,8.50
2018-09-20T17:39:48.423Z,9.07
2018-09-20T17:42:18.249Z,9.23
2018-09-20T17:44:47.837Z,10.00
2018-09-20T17:47:17.036Z,11.90
2018-09-20T17:49:47.478Z,11.20
2018-09-20T17:52:17.885Z,12.67
2018-09-20T17:54:48.095Z,12.13
2018-09-20T17:57:18.038Z,12.40
2018-09-20T17:59:47.194Z,11.50
2018-09-20T18:02:16.449Z,10.57
2018-09-20T18:04:45.787Z,9.30
2018-09-20T18:07:15.195Z,8.90
2018-09-20T18:09:44.321Z,9.47
2018-09-20T18:12:13.556Z,10.17
2018-09-20T18:14:42.682Z,10.13
2018-09-20T18:17:11.865Z,10.67
2018-09-20T18:19:41.020Z,9.70
2018-09-20T18:22:11.493Z,11.27
2018-09-20T18:24:40.712Z,10.23
2018-09-20T18:27:09.906Z,11.47
2018-09-20T18:29:39.027Z,10.27
2018-09-20T18:32:08.466Z,10.17
2018-09-20T18:34:37.577Z,9.50
2018-09-20T18:37:06.951Z,9.90
2018-09-20T18:39:36.122Z,12.47
2018-09-20T18:42:05.288Z,10.50
2018-09-20T18:44:34.507Z,10.70
2018-09-20T18:47:03.697Z,9.80
2018-09-20T18:49:32.868Z,10.73
2018-09-20T18:52:02.024Z,11.60
2018-09-20T18:54:31.217Z,10.80
2018-09-20T18:57:00.344Z,10.47
2018-09-20T18:59:29.529Z,10.37
2018-09-20T19:01:59.055Z,10.73
2018-09-20T19:04:28.206Z,11.27
2018-09-20T19:06:57.344Z,10.33
2018-09-20T19:09:26.492Z,10.47
2018-09-20T19:11:55.607Z,11.97
2018-09-20T19:14:24.729Z,10.90
2018-09-20T19:16:53.912Z,11.87
2018-09-20T19:19:23.056Z,13.00
2018-09-20T19:21:52.226Z,12.70
2018-09-20T19:24:21.518Z,12.30
2018-09-20T19:26:50.911Z,12.80
2018-09-20T19:29:20.065Z,13.17
2018-09-20T19:31:49.345Z,11.67
2018-09-20T19:34:18.476Z,10.53
2018-09-20T19:36:47.782Z,10.97
2018-09-20T19:39:16.845Z,12.07
2018-09-20T19:41:46.428Z,12.77
2018-09-20T19:44:15.628Z,11.67
2018-09-20T19:46:44.845Z,14.43
2018-09-20T19:49:13.979Z,13.63
2018-09-20T19:51:43.169Z,14.30
2018-09-20T19:54:12.303Z,13.00
2018-09-20T19:56:41.430Z,12.80
2018-09-20T19:59:10.568Z,12.90
2018-09-20T20:01:39.744Z,13.67
2018-09-20T20:04:08.868Z,15.67
2018-09-20T20:06:38.033Z,13.43
2018-09-20T20:09:10.979Z,12.67
2018-09-20T20:11:40.930Z,12.30
2018-09-20T20:14:10.158Z,13.40
2018-09-20T20:16:39.974Z,14.70
2018-09-20T20:19:09.701Z,15.20
2018-09-20T20:21:38.901Z,13.23
2018-09-20T20:24:08.168Z,14.80
2018-09-20T20:26:37.348Z,14.13
2018-09-20T20:29:06.597Z,14.00
2018-09-20T20:31:35.827Z,15.23
2018-09-20T20:34:04.995Z,13.53
2018-09-20T20:36:34.150Z,12.93
2018-09-20T20:39:03.406Z,14.43
2018-09-20T20:41:32.600Z,13.07
2018-09-20T20:44:01.993Z,13.53
2018-09-20T20:46:31.408Z,15.37
2018-09-20T20:49:00.679Z,14.70
2018-09-20T20:51:29.875Z,13.00
2018-09-20T20:53:59.112Z,13.43
2018-09-20T20:56:28.270Z,14.30
2018-09-20T20:58:57.475Z,14.97
2018-09-20T21:01:26.653Z,13.97
2018-09-20T21:03:56.628Z,14.17
2018-09-20T21:06:25.810Z,14.90
2018-09-20T21:08:55.065Z,13.77
2018-09-20T21:11:24.129Z,13.97
2018-09-20T21:13:53.704Z,14.53
2018-09-20T21:16:22.864Z,14.17
2018-09-20T21:18:52.267Z,17.43
2018-09-20T21:21:21.713Z,15.70
2018-09-20T21:23:50.956Z,14.57
2018-09-20T21:26:20.173Z,15.67
2018-09-20T21:28:49.305Z,15.40
2018-09-20T21:31:18.534Z,14.70
2018-09-20T21:33:47.996Z,15.33
2018-09-20T21:36:17.164Z,15.77
2018-09-20T21:38:46.332Z,15.60
2018-09-20T21:41:16.265Z,16.73
2018-09-20T21:43:45.466Z,16.40
2018-09-20T21:46:14.609Z,15.00
2018-09-20T21:48:43.880Z,14.90
2018-09-20T21:51:13.600Z,14.33
2018-09-20T21:53:42.893Z,14.60
2018-09-20T21:56:12.334Z,14.67
2018-09-20T21:58:41.579Z,16.00
2018-09-20T22:01:14.760Z,15.13
2018-09-20T22:03:43.933Z,15.03
2018-09-20T22:06:13.070Z,15.53
2018-09-20T22:08:42.398Z,15.87
2018-09-20T22:11:11.540Z,15.67
2018-09-20T22:13:40.731Z,16.13
2018-09-20T22:16:10.252Z,15.50
2018-09-20T22:18:39.412Z,15.77
2018-09-20T22:21:08.628Z,16.07
2018-09-20T22:23:37.830Z,15.40
2018-09-20T22:26:07.043Z,16.93
2018-09-20T22:28:36.193Z,15.93
2018-09-20T22:31:06.240Z,16.90
2018-09-20T22:33:35.426Z,17.13
2018-09-20T22:36:04.729Z,15.93
2018-09-20T22:38:33.948Z,17.50
2018-09-20T22:41:03.289Z,16.57
2018-09-20T22:43:32.810Z,18.30
2018-09-20T22:46:02.068Z,15.93
2018-09-20T22:48:35.524Z,16.00
2018-09-20T22:51:04.929Z,17.27
2018-09-20T22:53:34.154Z,17.10
2018-09-20T22:56:03.322Z,18.13
2018-09-20T22:58:32.512Z,16.67
2018-09-20T23:01:01.990Z,18.10
2018-09-20T23:03:31.415Z,17.80
2018-09-20T23:06:00.618Z,17.90
2018-09-20T23:08:30.266Z,18.63
2018-09-20T23:10:59.417Z,17.90
2018-09-20T23:13:29.027Z,16.80
2018-09-20T23:15:58.164Z,17.00
2018-09-20T23:18:27.879Z,17.63
2018-09-20T23:20:57.820Z,16.37
2018-09-20T23:23:26.980Z,18.23
2018-09-20T23:25:56.152Z,17.10
2018-09-20T23:28:25.772Z,16.13
2018-09-20T23:30:55.032Z,16.57
2018-09-20T23:33:24.239Z,16.50
2018-09-20T23:35:53.589Z,16.20
2018-09-20T23:38:23.240Z,15.93
2018-09-20T23:40:52.485Z,16.97
2018-09-20T23:43:21.647Z,18.27
2018-09-20T23:45:50.821Z,17.70
2018-09-20T23:48:20.025Z,17.37
2018-09-20T23:50:49.191Z,18.50
2018-09-20T23:53:18.395Z,17.23
2018-09-20T23:55:47.881Z,18.90
2018-09-20T23:58:17.057Z,18.27
